createdAt,value
2022-08-19T00:00:29.620Z,997.6
2022-08-19T00:02:57.862Z,997.6
2022-08-19T00:05:26.072Z,997.6
2022-08-19T00:07:54.303Z,997.6
2022-08-19T00:10:22.577Z,997.5
2022-08-19T00:13:27.911Z,997.6
2022-08-19T00:15:56.155Z,997.5
2022-08-19T00:18:24.383Z,997.5
2022-08-19T00:21:29.676Z,997.4
2022-08-19T00:23:57.956Z,997.5
2022-08-19T00:26:26.211Z,997.5
2022-08-19T00:28:54.433Z,997.8
2022-08-19T00:31:59.751Z,997.7
2022-08-19T00:34:27.999Z,997.7
2022-08-19T00:37:29.209Z,997.7
2022-08-19T00:39:57.569Z,997.7
2022-08-19T00:42:25.692Z,997.5
2022-08-19T00:44:53.965Z,997.5
2022-08-19T00:47:22.188Z,997.3
2022-08-19T00:50:27.497Z,997.3
2022-08-19T00:52:55.772Z,997.2
2022-08-19T00:55:23.993Z,997.3
2022-08-19T00:58:29.329Z,997.3
2022-08-19T01:00:57.588Z,997.3
2022-08-19T01:03:25.824Z,997.3
2022-08-19T01:05:54.070Z,997.3
2022-08-19T01:08:22.288Z,997.3
2022-08-19T01:11:27.620Z,997.2
2022-08-19T01:13:55.846Z,997.1
2022-08-19T01:16:24.104Z,997.2
2022-08-19T01:19:29.464Z,997.2
2022-08-19T01:21:57.690Z,997.3
2022-08-19T01:24:25.946Z,997.2
2022-08-19T01:26:54.142Z,997.2
2022-08-19T01:29:22.410Z,997.2
2022-08-19T01:32:33.266Z,997.3
2022-08-19T01:34:56.004Z,997.4
2022-08-19T01:37:16.026Z,997.5
2022-08-19T01:40:21.363Z,997.5
2022-08-19T01:43:26.674Z,997.4
2022-08-19T01:45:54.938Z,997.4
2022-08-19T01:48:23.172Z,997.4
2022-08-19T01:51:28.485Z,997.4
2022-08-19T01:53:56.722Z,997.4
2022-08-19T01:56:24.986Z,997.4
2022-08-19T01:58:53.225Z,997.3
2022-08-19T02:01:21.511Z,997.4
2022-08-19T02:04:26.788Z,997.4
2022-08-19T02:06:55.002Z,997.4
2022-08-19T02:09:23.273Z,997.3
2022-08-19T02:12:28.564Z,997.5
2022-08-19T02:14:56.827Z,997.5
2022-08-19T02:17:25.062Z,997.6
2022-08-19T02:19:53.377Z,997.5
2022-08-19T02:22:21.566Z,997.5
2022-08-19T02:25:26.847Z,997.3
2022-08-19T02:27:55.145Z,997.3
2022-08-19T02:30:23.432Z,997.2
2022-08-19T02:33:28.672Z,997.4
2022-08-19T02:35:56.941Z,997.5
2022-08-19T02:38:17.000Z,997.5
2022-08-19T02:41:22.296Z,997.5
2022-08-19T02:44:30.777Z,997.5
2022-08-19T02:46:55.884Z,997.5
2022-08-19T02:49:24.105Z,997.5
2022-08-19T02:52:29.445Z,997.5
2022-08-19T02:54:57.656Z,997.5
2022-08-19T02:57:25.937Z,997.5
2022-08-19T02:59:54.196Z,997.6
2022-08-19T03:02:22.410Z,997.6
2022-08-19T03:05:45.941Z,997.6
2022-08-19T03:07:55.988Z,997.6
2022-08-19T03:10:56.201Z,997.5
2022-08-19T03:13:29.529Z,997.6
2022-08-19T03:15:57.745Z,997.5
2022-08-19T03:18:26.016Z,997.6
2022-08-19T03:20:54.276Z,997.6
2022-08-19T03:23:22.510Z,997.6
2022-08-19T03:26:27.795Z,997.6
2022-08-19T03:28:57.941Z,997.6
2022-08-19T03:31:42.436Z,997.7
2022-08-19T03:34:29.642Z,997.7
2022-08-19T03:38:03.880Z,997.7
2022-08-19T03:41:09.130Z,997.7
2022-08-19T03:44:16.667Z,997.7
2022-08-19T03:47:19.754Z,997.7
2022-08-19T03:50:25.054Z,997.7
2022-08-19T03:53:30.381Z,997.7
2022-08-19T03:55:58.639Z,997.7
2022-08-19T03:58:26.881Z,997.7
2022-08-19T04:00:55.181Z,997.6
2022-08-19T04:03:23.368Z,997.4
2022-08-19T04:06:28.650Z,997.5
2022-08-19T04:08:56.906Z,997.5
2022-08-19T04:11:43.330Z,997.5
2022-08-19T04:13:53.428Z,997.5
2022-08-19T04:16:21.641Z,997.6
2022-08-19T04:19:26.968Z,997.6
2022-08-19T04:21:55.258Z,997.5
2022-08-19T04:24:23.500Z,997.3
2022-08-19T04:27:28.754Z,997.5
2022-08-19T04:29:57.089Z,997.6
2022-08-19T04:32:25.247Z,997.6
2022-08-19T04:35:30.594Z,997.6
2022-08-19T04:38:27.700Z,997.6
2022-08-19T04:40:55.933Z,997.6
2022-08-19T04:43:24.201Z,997.6
2022-08-19T04:46:39.700Z,997.6
2022-08-19T04:48:57.790Z,997.5
2022-08-19T04:51:26.000Z,997.5
2022-08-19T04:54:38.111Z,997.6
2022-08-19T04:56:59.569Z,997.6
2022-08-19T04:59:27.816Z,997.7
2022-08-19T05:01:56.061Z,997.7
2022-08-19T05:04:24.455Z,997.8
2022-08-19T05:07:29.644Z,997.8
2022-08-19T05:09:59.010Z,997.8
2022-08-19T05:12:28.794Z,997.7
2022-08-19T05:14:54.346Z,997.7
2022-08-19T05:17:28.362Z,997.7
2022-08-19T05:20:27.919Z,997.8
2022-08-19T05:22:56.339Z,997.8
2022-08-19T05:25:24.392Z,997.9
2022-08-19T05:28:29.729Z,997.9
2022-08-19T05:30:57.977Z,997.8
2022-08-19T05:33:26.195Z,997.8
2022-08-19T05:35:54.451Z,997.8
2022-08-19T05:38:14.538Z,997.9
2022-08-19T05:41:19.842Z,997.9
2022-08-19T05:44:25.152Z,998
2022-08-19T05:47:30.464Z,998.1
2022-08-19T05:49:58.694Z,998.1
2022-08-19T05:52:26.942Z,998.2
2022-08-19T05:54:55.193Z,998.2
2022-08-19T05:57:23.471Z,998.2
2022-08-19T06:00:28.810Z,998.4
2022-08-19T06:02:57.044Z,998.4
2022-08-19T06:05:25.225Z,998.5
2022-08-19T06:08:33.653Z,998.6
2022-08-19T06:10:58.849Z,998.5
2022-08-19T06:13:27.110Z,998.6
2022-08-19T06:15:55.320Z,998.6
2022-08-19T06:18:23.563Z,998.4
2022-08-19T06:21:28.874Z,998.7
2022-08-19T06:23:57.114Z,998.7
2022-08-19T06:26:25.348Z,998.7
2022-08-19T06:28:53.648Z,998.7
2022-08-19T06:31:21.864Z,998.7
2022-08-19T06:34:27.188Z,998.7
2022-08-19T06:36:55.440Z,998.7
2022-08-19T06:39:52.611Z,998.7
2022-08-19T06:42:21.684Z,998.6
2022-08-19T06:45:34.675Z,998.6
2022-08-19T06:47:54.369Z,998.6
2022-08-19T06:50:22.600Z,998.6
2022-08-19T06:53:27.896Z,998.7
2022-08-19T06:55:56.179Z,998.7
2022-08-19T06:58:24.415Z,998.7
2022-08-19T07:01:29.748Z,998.7
2022-08-19T07:03:57.967Z,998.7
2022-08-19T07:06:41.417Z,998.7
2022-08-19T07:08:54.439Z,998.7
2022-08-19T07:11:22.703Z,998.7
2022-08-19T07:14:28.048Z,998.7
2022-08-19T07:16:56.278Z,998.7
2022-08-19T07:19:24.491Z,998.7
2022-08-19T07:22:29.886Z,998.7
2022-08-19T07:24:58.100Z,998.8
2022-08-19T07:27:26.344Z,998.9
2022-08-19T07:29:55.826Z,997.7
2022-08-19T07:32:59.861Z,998.8
2022-08-19T07:35:28.139Z,998.8
2022-08-19T07:37:56.412Z,998.8
2022-08-19T07:40:16.544Z,998.9
2022-08-19T07:43:21.720Z,998.9
2022-08-19T07:46:27.065Z,998.9
2022-08-19T07:48:55.324Z,998.9
2022-08-19T07:51:29.556Z,998.8
2022-08-19T07:54:28.865Z,998.9
2022-08-19T07:56:57.179Z,999
2022-08-19T07:59:25.348Z,998.9
2022-08-19T08:02:30.673Z,998.9
2022-08-19T08:04:58.921Z,998.9
2022-08-19T08:07:31.315Z,998.9
2022-08-19T08:12:33.990Z,998.7
2022-08-19T08:15:28.989Z,998.9
2022-08-19T08:17:57.206Z,998.9
2022-08-19T08:20:25.467Z,998.9
2022-08-19T08:23:30.752Z,998.8
2022-08-19T08:25:59.057Z,998.9
2022-08-19T08:28:29.450Z,998.9
2022-08-19T08:30:55.536Z,998.8
2022-08-19T08:33:30.342Z,998.8
2022-08-19T08:36:29.085Z,998.8
2022-08-19T08:41:17.453Z,998.9
2022-08-19T08:44:22.780Z,998.9
2022-08-19T08:47:28.034Z,998.8
2022-08-19T08:49:56.264Z,998.8
2022-08-19T08:52:24.513Z,998.8
2022-08-19T08:55:36.532Z,998.9
2022-08-19T08:57:58.079Z,998.9
2022-08-19T09:00:26.295Z,998.9
2022-08-19T09:02:54.557Z,998.8
2022-08-19T09:05:59.883Z,998.9
2022-08-19T09:08:28.100Z,998.9
2022-08-19T09:10:56.393Z,998.9
2022-08-19T09:13:24.624Z,998.8
2022-08-19T09:16:29.962Z,998.9
2022-08-19T09:18:58.211Z,998.8
2022-08-19T09:21:30.486Z,998.8
2022-08-19T09:23:54.696Z,998.8
2022-08-19T09:26:22.933Z,998.8
2022-08-19T09:29:28.263Z,998.8
2022-08-19T09:31:56.479Z,998.8
2022-08-19T09:34:24.735Z,998.7
2022-08-19T09:37:30.063Z,998.7
2022-08-19T09:40:27.280Z,998.7
2022-08-19T09:44:00.200Z,998.7
2022-08-19T09:45:23.657Z,998.5
2022-08-19T09:48:29.016Z,998.7
2022-08-19T09:50:57.194Z,998.7
2022-08-19T09:53:25.794Z,998.8
2022-08-19T09:55:53.696Z,998.8
2022-08-19T09:58:26.082Z,998.8
2022-08-19T10:01:27.292Z,998.8
2022-08-19T10:03:55.537Z,998.7
2022-08-19T10:06:41.971Z,998.7
2022-08-19T10:09:34.177Z,998.6
2022-08-19T10:11:57.304Z,998.7
2022-08-19T10:14:25.577Z,998.7
2022-08-19T10:17:31.585Z,998.7
2022-08-19T10:19:59.166Z,998.7
2022-08-19T10:22:27.365Z,998.8
2022-08-19T10:24:55.696Z,998.9
2022-08-19T10:28:00.920Z,998.9
2022-08-19T10:30:29.203Z,998.8
2022-08-19T10:32:57.397Z,998.8
2022-08-19T10:35:25.680Z,998.8
2022-08-19T10:37:56.757Z,998.8
2022-08-19T10:40:22.260Z,998.8
2022-08-19T10:43:19.267Z,998.8
2022-08-19T10:46:24.625Z,998.8
2022-08-19T10:49:29.900Z,998.8
2022-08-19T10:51:58.180Z,998.8
2022-08-19T10:54:31.492Z,998.8
2022-08-19T10:56:54.663Z,998.8
2022-08-19T11:00:00.001Z,998.9
2022-08-19T11:02:28.207Z,998.8
2022-08-19T11:04:56.473Z,998.8
2022-08-19T11:07:24.714Z,998.8
2022-08-19T11:10:30.014Z,998.7
2022-08-19T11:12:58.278Z,998.7
2022-08-19T11:15:26.534Z,998.6
2022-08-19T11:17:54.964Z,998.6
2022-08-19T11:20:23.028Z,998.5
2022-08-19T11:23:28.356Z,998.5
2022-08-19T11:25:56.571Z,998.4
2022-08-19T11:28:24.795Z,998.4
2022-08-19T11:31:30.155Z,998.3
2022-08-19T11:33:58.456Z,998.4
2022-08-19T11:36:26.643Z,998.3
2022-08-19T11:38:54.891Z,998.3
2022-08-19T11:41:14.930Z,998.2
2022-08-19T11:44:20.249Z,998
2022-08-19T11:47:25.554Z,998
2022-08-19T11:49:53.809Z,997.9
2022-08-19T11:52:22.028Z,998.1
2022-08-19T11:55:27.370Z,998
2022-08-19T11:57:55.775Z,997.9
2022-08-19T12:00:23.875Z,998
2022-08-19T12:03:29.246Z,998
2022-08-19T12:05:57.449Z,998
2022-08-19T12:08:25.701Z,998
2022-08-19T12:11:34.359Z,998
2022-08-19T12:13:59.232Z,998
2022-08-19T12:16:27.482Z,998
2022-08-19T12:18:55.741Z,998.9
2022-08-19T12:21:23.981Z,998.1
2022-08-19T12:25:06.530Z,998
2022-08-19T12:28:11.666Z,998
2022-08-19T12:31:16.967Z,997.9
2022-08-19T12:34:22.254Z,997.8
2022-08-19T12:37:27.583Z,997.8
2022-08-19T12:39:55.871Z,997.9
2022-08-19T12:42:15.906Z,997.8
2022-08-19T12:45:58.245Z,997.9
2022-08-19T12:49:35.926Z,997.9
2022-08-19T12:50:54.757Z,997.9
2022-08-19T12:53:23.005Z,997.9
2022-08-19T12:56:28.335Z,998
2022-08-19T12:58:56.569Z,998
2022-08-19T13:01:24.886Z,998
2022-08-19T13:04:30.121Z,997.9
2022-08-19T13:06:58.377Z,998
2022-08-19T13:09:26.627Z,998
2022-08-19T13:11:54.847Z,998
2022-08-19T13:14:23.129Z,998
2022-08-19T13:17:28.451Z,997.9
2022-08-19T13:19:56.684Z,997.9
2022-08-19T13:22:24.921Z,998
2022-08-19T13:25:30.245Z,998
2022-08-19T13:27:58.465Z,998
2022-08-19T13:30:26.771Z,998
2022-08-19T13:32:54.998Z,998
2022-08-19T13:35:23.203Z,997.9
2022-08-19T13:38:28.559Z,998
2022-08-19T13:40:56.793Z,997.9
2022-08-19T13:43:25.022Z,997.9
2022-08-19T13:46:30.352Z,997.8
2022-08-19T13:48:58.608Z,997.8
2022-08-19T13:51:26.811Z,997.8
2022-08-19T13:55:01.000Z,997.8
2022-08-19T13:58:01.128Z,997.8
2022-08-19T13:59:57.547Z,997.8
2022-08-19T14:02:25.763Z,997.8
2022-08-19T14:04:54.006Z,997.9
2022-08-19T14:07:22.265Z,997.9
2022-08-19T14:10:27.604Z,997.9
2022-08-19T14:12:55.840Z,997.9
2022-08-19T14:15:24.077Z,997.9
2022-08-19T14:19:06.429Z,997.9
2022-08-19T14:22:11.755Z,997.9
2022-08-19T14:25:17.091Z,997.9
2022-08-19T14:28:22.361Z,997.9
2022-08-19T14:33:19.175Z,997.7
2022-08-19T14:36:24.189Z,997.7
2022-08-19T14:39:29.889Z,997.7
2022-08-19T14:41:57.742Z,997.7
2022-08-19T14:44:25.984Z,997.6
2022-08-19T14:47:31.287Z,997.6
2022-08-19T14:49:59.547Z,997.5
2022-08-19T14:52:27.827Z,997.5
2022-08-19T14:54:56.036Z,997.5
2022-08-19T14:57:24.300Z,997.4
2022-08-19T15:00:29.583Z,997.5
2022-08-19T15:03:34.928Z,997.5
2022-08-19T15:05:55.041Z,997.5
2022-08-19T15:08:23.215Z,997.5
2022-08-19T15:11:28.550Z,997.5
2022-08-19T15:13:56.771Z,997.5
2022-08-19T15:16:25.055Z,997.5
2022-08-19T15:19:30.328Z,997.5
2022-08-19T15:21:58.594Z,997.5
2022-08-19T15:24:26.844Z,997.5
2022-08-19T15:26:55.128Z,997.5
2022-08-19T15:29:23.325Z,997.6
2022-08-19T15:32:28.625Z,997.6
2022-08-19T15:34:56.882Z,997.6
2022-08-19T15:37:25.249Z,997.6
2022-08-19T15:40:30.517Z,997.6
2022-08-19T15:42:58.699Z,997.6
2022-08-19T15:45:30.577Z,997.6
2022-08-19T15:47:55.446Z,997.6
2022-08-19T15:50:23.476Z,997.6
2022-08-19T15:53:28.745Z,997.6
2022-08-19T15:55:57.013Z,997.6
2022-08-19T15:58:28.140Z,997.6
2022-08-19T16:01:30.580Z,997.6
2022-08-19T16:03:50.631Z,997.6
2022-08-19T16:06:18.854Z,997.6
2022-08-19T16:09:27.421Z,997.6
2022-08-19T16:12:29.484Z,997.5
2022-08-19T16:14:57.777Z,997.5
2022-08-19T16:17:25.995Z,997.5
2022-08-19T16:19:54.305Z,997.5
2022-08-19T16:22:22.480Z,997.5
2022-08-19T16:25:27.794Z,997.5
2022-08-19T16:28:06.909Z,997.6
2022-08-19T16:30:24.285Z,997.5
2022-08-19T16:33:29.593Z,997.5
2022-08-19T16:36:00.180Z,997.5
2022-08-19T16:38:26.144Z,997.6
2022-08-19T16:40:54.355Z,997.6
2022-08-19T16:43:22.600Z,997.6
2022-08-19T16:46:27.929Z,997.7
2022-08-19T16:48:56.140Z,997.6
2022-08-19T16:51:24.417Z,997.7
2022-08-19T16:54:32.532Z,997.7
2022-08-19T16:56:58.004Z,997.7
2022-08-19T16:59:26.308Z,997.8
2022-08-19T17:01:54.532Z,997.7
2022-08-19T17:04:57.171Z,997.8
2022-08-19T17:07:19.906Z,997.8
2022-08-19T17:10:25.122Z,997.8
2022-08-19T17:13:30.448Z,997.8
2022-08-19T17:15:58.686Z,997.8
2022-08-19T17:18:26.937Z,997.8
2022-08-19T17:20:56.824Z,997.7
2022-08-19T17:23:23.460Z,997.8
2022-08-19T17:26:28.770Z,997.8
2022-08-19T17:28:56.984Z,997.9
2022-08-19T17:31:25.258Z,997.9
2022-08-19T17:34:30.550Z,997.9
2022-08-19T17:36:58.800Z,997.9
2022-08-19T17:39:27.047Z,997.9
2022-08-19T17:41:55.334Z,997.9
2022-08-19T17:44:23.544Z,998
2022-08-19T17:47:28.866Z,998
2022-08-19T17:49:57.086Z,998
2022-08-19T17:52:25.383Z,998
2022-08-19T17:55:30.669Z,998
2022-08-19T17:57:58.919Z,998
2022-08-19T18:00:27.158Z,998
2022-08-19T18:02:55.445Z,998.1
2022-08-19T18:05:15.497Z,997.9
2022-08-19T18:08:20.875Z,998.1
2022-08-19T18:11:26.133Z,998.1
2022-08-19T18:13:54.336Z,998.1
2022-08-19T18:16:22.596Z,998.1
2022-08-19T18:19:29.491Z,998.2
2022-08-19T18:21:56.167Z,998.2
2022-08-19T18:24:24.379Z,998.2
2022-08-19T18:27:29.708Z,998.3
2022-08-19T18:29:57.947Z,998.3
2022-08-19T18:32:26.193Z,998.3
2022-08-19T18:34:54.464Z,998.3
2022-08-19T18:37:22.677Z,998.3
2022-08-19T18:40:27.999Z,998.4
2022-08-19T18:42:56.308Z,998.4
2022-08-19T18:45:24.494Z,998.5
2022-08-19T18:48:29.815Z,998.6
2022-08-19T18:50:58.089Z,998.7
2022-08-19T18:53:26.363Z,998.7
2022-08-19T18:57:08.711Z,998.7
2022-08-19T19:00:14.073Z,998.7
2022-08-19T19:03:19.298Z,998.8
2022-08-19T19:06:16.413Z,998.8
2022-08-19T19:09:21.743Z,998.8
2022-08-19T19:12:27.060Z,998.9
2022-08-19T19:14:55.337Z,998.9
2022-08-19T19:17:23.590Z,998.9
2022-08-19T19:20:35.412Z,999
2022-08-19T19:22:58.191Z,999
2022-08-19T19:25:25.364Z,999.1
2022-08-19T19:28:30.685Z,999.1
2022-08-19T19:30:58.918Z,999.1
2022-08-19T19:33:27.181Z,999.2
2022-08-19T19:35:55.428Z,999.2
2022-08-19T19:38:23.656Z,999
2022-08-19T19:41:28.995Z,999.2
2022-08-19T19:44:23.467Z,999.3
2022-08-19T19:46:25.467Z,999.3
2022-08-19T19:49:30.781Z,999.4
2022-08-19T19:51:59.039Z,999.3
2022-08-19T19:54:27.262Z,999.3
2022-08-19T19:56:55.532Z,999.4
2022-08-19T19:59:23.764Z,999.2
2022-08-19T20:02:29.186Z,999.5
2022-08-19T20:05:34.403Z,999.5
2022-08-19T20:07:54.552Z,999.6
2022-08-19T20:10:59.758Z,999.6
2022-08-19T20:13:28.012Z,999.6
2022-08-19T20:15:56.256Z,999.6
2022-08-19T20:18:24.498Z,999.7
2022-08-19T20:21:29.824Z,999.7
2022-08-19T20:24:08.809Z,999.7
2022-08-19T20:26:32.645Z,999.8
2022-08-19T20:29:37.930Z,999.8
2022-08-19T20:31:59.866Z,999.9
2022-08-19T20:34:28.151Z,999.9
2022-08-19T20:36:56.360Z,999.9
2022-08-19T20:39:24.617Z,999.9
2022-08-19T20:42:29.919Z,999.9
2022-08-19T20:44:58.212Z,1000
2022-08-19T20:47:26.412Z,1000
2022-08-19T20:49:54.674Z,1000
2022-08-19T20:52:22.926Z,1000
2022-08-19T20:55:28.276Z,1000.1
2022-08-19T20:57:56.717Z,1000
2022-08-19T21:00:24.711Z,1000.1
2022-08-19T21:03:30.013Z,1000
2022-08-19T21:05:50.098Z,1000
2022-08-19T21:08:18.357Z,1000.1
2022-08-19T21:11:23.650Z,999.9
2022-08-19T21:14:28.936Z,1000.1
2022-08-19T21:16:57.202Z,1000.1
2022-08-19T21:19:25.458Z,1000.1
2022-08-19T21:22:30.754Z,1000.2
2022-08-19T21:27:27.547Z,1000.1
2022-08-19T21:29:55.559Z,1000.2
2022-08-19T21:32:23.767Z,1000
2022-08-19T21:35:29.104Z,1000.3
2022-08-19T21:37:57.345Z,1000.3
2022-08-19T21:40:25.569Z,1000.3
2022-08-19T21:43:30.869Z,1000.4
2022-08-19T21:45:59.165Z,1000.4
2022-08-19T21:48:27.411Z,1000.4
2022-08-19T21:50:55.657Z,1000.4
2022-08-19T21:53:23.851Z,1000.2
2022-08-19T21:56:29.205Z,1000.5
2022-08-19T21:58:57.448Z,1000.5
2022-08-19T22:01:25.800Z,1000.5
2022-08-19T22:03:53.912Z,1000.4
2022-08-19T22:06:13.972Z,1000.5
2022-08-19T22:09:19.288Z,1000.4
2022-08-19T22:12:24.622Z,1000.4
2022-08-19T22:15:29.921Z,1000.4
2022-08-19T22:17:58.172Z,1000.4
2022-08-19T22:20:26.406Z,1000.4
2022-08-19T22:22:54.657Z,1000.4
2022-08-19T22:25:29.132Z,1000.4
2022-08-19T22:28:28.273Z,1000.4
2022-08-19T22:30:56.503Z,1000.4
2022-08-19T22:33:24.691Z,1000.5
2022-08-19T22:36:30.015Z,1000.4
2022-08-19T22:38:58.275Z,1000.4
2022-08-19T22:41:26.522Z,1000.5
2022-08-19T22:44:31.849Z,1000.5
2022-08-19T22:47:00.113Z,1000.5
2022-08-19T22:49:28.357Z,1000.5
2022-08-19T22:51:56.617Z,1000.4
2022-08-19T22:54:24.870Z,1000.4
2022-08-19T22:57:30.122Z,1000.4
2022-08-19T22:59:58.905Z,1000.4
2022-08-19T23:02:26.644Z,1000.4
2022-08-19T23:04:54.882Z,1000.4
2022-08-19T23:07:14.934Z,1000.4
2022-08-19T23:10:27.022Z,1000.4
2022-08-19T23:13:25.569Z,1000.4
2022-08-19T23:16:30.850Z,1000.3
2022-08-19T23:18:59.118Z,1000.3
2022-08-19T23:21:27.389Z,1000.2
2022-08-19T23:23:55.647Z,1000.2
2022-08-19T23:26:23.866Z,1000
2022-08-19T23:29:29.161Z,1000.2
2022-08-19T23:31:57.447Z,1000.2
2022-08-19T23:34:25.706Z,1000.3
2022-08-19T23:37:30.995Z,1000.4
2022-08-19T23:39:59.253Z,1000.4
2022-08-19T23:42:27.481Z,1000.4
2022-08-19T23:44:55.745Z,1000.4
2022-08-19T23:47:23.961Z,1000.1
2022-08-19T23:50:29.276Z,1000.4
2022-08-19T23:52:57.543Z,1000.4
2022-08-19T23:55:25.814Z,1000.4
2022-08-19T23:58:31.110Z,1000.4
